x

Northwestern Hawaii Two - 190nm Nw Of Kauai Is, Hi (51101) Wave Buoy

4:50am - Tue 7th Jul 2015 All times are HST. -10 hours from GMT.

  • Sig Wave height 5.6ft
  • Swell Direction
  • Peak Period 9s
  • Average Period 6s
  • Wind
    16mph, 20mph gusts
  • Sea Temp 80°f
  • Air Temp 79°f
  • Sea Pressure 1017mb
  • Northwestern Hawaii Two - 190nm Nw Of Kauai Is, Hi
  • Northwestern Hawaii Two - 190nm Nw Of Kauai Is, Hi

More Historic Weather Station data

Upgrade to MSW Pro to gain access to the past 30 days of data for over 8000 Wavebouys and Weather Stations around the globe.

Join Pro

Comparision Forecast

View Surf forecast
   
Tue 07/07 4:50am 5.5ft 9s 6s 16 20 mph 1017mb 80f 79f
3:50am 5ft 19s 6s 16 18 mph 1016.8mb 80f 79f
2:50am 5.5ft 15s 6s 16 18 mph 1016.9mb 80f 79f
1:50am 5.5ft 19s 6s 18 20 mph 1017.5mb 80f 79f
12:50am 5.5ft 15s 6s 16 20 mph 1017.7mb 80f 79f
Mon 07/06 11:50pm 5.5ft 15s 6s 16 18 mph 1018.1mb 80f 80f
10:50pm 5ft 10s 6s 18 20 mph 1018.1mb 80f 80f
9:50pm 5ft 15s 6s 16 18 mph 1017.7mb 80f 80f
8:50pm 5ft 9s 6s 16 18 mph 1017.3mb 80f 80f
7:50pm 5ft 16s 6s 13 18 mph 1017.1mb 80f 80f
6:50pm 5.5ft 10s 6s 16 18 mph 1016.5mb 80f 80f
5:50pm 5ft 9s 6s 16 18 mph 1016.1mb 80f 80f
4:50pm 5ft 11s 6s 16 18 mph 1015.9mb 80f 80f
3:50pm 5ft 16s 7s 16 18 mph 1016.1mb 80f 80f
2:50pm 5ft 10s 7s 13 18 mph 1016.4mb 80f 80f
1:50pm 5ft 16s 7s 13 16 mph 1016.7mb 80f 80f
12:50pm 4.5ft 11s 7s 13 16 mph 1016.7mb 80f 80f
11:50am 5ft 11s 7s 13 16 mph 1016.8mb 80f 80f
10:50am 4.5ft 11s 7s 13 16 mph 1016.9mb 80f 80f
9:50am 4.5ft 16s 7s 13 16 mph 1016.8mb 80f 80f
8:50am 4.5ft 10s 7s 13 16 mph 1016.8mb 79f 80f
7:50am 4.5ft 16s 6s 11 13 mph 1016.6mb 79f 80f
6:50am 4.5ft 13s 7s 13 16 mph 1016.1mb 80f 80f
5:50am 4.5ft 17s 7s 7 9 mph 1015.9mb 80f 78f
4:50am 4.5ft 13s 7s 9 11 mph 1015.6mb 80f 78f
3:50am 4.5ft 17s 7s 11 13 mph 1015.4mb 80f 78f
2:50am 4.5ft 13s 8s 13 18 mph 1015.4mb 80f 79f
1:50am 4.5ft 12s 7s 9 11 mph 1015.9mb 80f 79f
12:50am 4.5ft 17s 7s 9 11 mph 1016.3mb 80f 80f
Sun 07/05 11:50pm 4.5ft 13s 7s 11 13 mph 1016.6mb 80f 80f
10:50pm 4.5ft 14s 7s 11
mph
1016.9mb 80f 80f
9:50pm 5ft 13s 7s 11 13 mph 1016.4mb 80f 80f
8:50pm 4.5ft 17s 7s 9 11 mph 1016mb 80f 80f
7:50pm 5ft 17s 7s 9 11 mph 1015.5mb 80f 80f
6:50pm 5ft 13s 7s 9 11 mph 1015.1mb 80f 81f
5:50pm 5ft 17s 7s 11 13 mph 1014.5mb 80f 81f
4:50pm 4.5ft 14s 7s 11
mph
1014.3mb 81f 81f
3:50pm 4.5ft 13s 8s 11 13 mph 1014.5mb 81f 81f
2:50pm 4.5ft 14s 7s 11 13 mph 1014.5mb 81f 80f
1:50pm 5ft 14s 7s 11 13 mph 1014.7mb 80f 80f
12:50pm 4.5ft 13s 7s 11 13 mph 1015.3mb 80f 80f
11:50am 5ft 13s 7s 11 13 mph 1015.4mb 80f 80f
10:50am 4.5ft 14s 7s 11 16 mph 1015.3mb 80f 80f
9:50am 5ft 13s 7s 13 16 mph 1015.3mb 80f 80f
8:50am 5ft 13s 7s 11 16 mph 1015mb 80f 80f
7:50am 4.5ft 14s 7s 13 16 mph 1014.8mb 80f 80f
6:50am 5ft 13s 7s 13 16 mph 1014.4mb 80f 80f
5:50am 5ft 14s 7s 11 13 mph 1014.2mb 80f 80f
4:50am 5ft 14s 7s 11
mph
1013.9mb 80f 80f
3:50am 5ft 13s 8s 11 13 mph 1013.6mb 80f 79f
2:50am 5ft 13s 8s 9 11 mph 1013.8mb 80f 80f
1:50am 5ft 13s 8s 11 13 mph 1014.2mb 80f 80f
12:50am 5ft 13s 7s 9
mph
1015.1mb 80f 80f
Sat 07/04 11:50pm 5ft 14s 8s 9 11 mph 1015.3mb 80f 80f
10:50pm 5ft 13s 7s 11
mph
1015.3mb 80f 80f
9:50pm 5ft 13s 7s 11 13 mph 1014.9mb 80f 80f
8:50pm 5ft 14s 7s 11 13 mph 1014.5mb 80f 80f
7:50pm 5ft 14s 7s 11 13 mph 1014mb 80f 80f
6:50pm 5.5ft 14s 7s 11 13 mph 1013.4mb 80f 81f
5:50pm 5.5ft 14s 7s 11 13 mph 1013.1mb 80f 81f
4:50pm 5ft 13s 7s 11 16 mph 1013.1mb 80f 81f
3:50pm 5ft 14s 7s 11 13 mph 1013.2mb 80f 81f
2:50pm 5ft 14s 7s 11 13 mph 1013.4mb 80f 81f
1:50pm 5ft 14s 7s 11 13 mph 1013.5mb 80f 80f
12:50pm 5ft 13s 7s 11 13 mph 1013.5mb 80f 80f
11:50am 5ft 14s 7s 9 11 mph 1013.7mb 80f 80f
10:50am 5.5ft 14s 8s 9 11 mph 1013.6mb 80f 80f
9:50am 5.5ft 8s 7s 11 13 mph 1013.5mb 80f 80f
8:50am 5ft 14s 8s 9 11 mph 1013.6mb 80f 80f
7:50am 5ft 9s 7s 9
mph
1013.5mb 80f 80f
6:50am 5ft 14s 7s 9 11 mph 1013mb 80f 80f
5:50am 4.5ft 13s 7s 11 13 mph 1012.5mb 80f 79f
4:50am 4.5ft 14s 7s 9 11 mph 1012.3mb 80f 79f
3:50am 5ft 8s 7s 11 13 mph 1012mb 80f 79f
2:50am 4.5ft 15s 8s 9 11 mph 1012.1mb 80f 79f
1:50am 4.5ft 15s 8s 11 13 mph 1012.2mb 80f 79f
12:50am 5ft 15s 8s 9 11 mph 1012.6mb 81f 79f
Fri 07/03 11:50pm 4.5ft 9s 8s 11 13 mph 1012.7mb 81f 79f
10:50pm 4ft 12s 7s 11 13 mph 1013mb 81f 79f
9:50pm 4.5ft 9s 8s 11 13 mph 1012.7mb 81f 79f
8:50pm 4.5ft 8s 8s 11 13 mph 1012.5mb 81f 79f
7:50pm 4.5ft 9s 7s 11 13 mph 1011.9mb 81f 78f
6:50pm 4.5ft 9s 7s 11 13 mph 1011.6mb 81f 79f
5:50pm 5ft 9s 7s 13 16 mph 1011.3mb 82f 78f
4:50pm 5ft 9s 7s 9 11 mph 1011.5mb 82f 80f
3:50pm 5.5ft 9s 8s 7 9 mph 1011.6mb 82f 80f